Time;durP1;ratioP1;P1;durP2;ratioP2;P2;SDS_P1;SDS_P2;PMS_P1;PMS_P2;Temp;Humidity;BMP_temperature;BMP_pressure;BME280_temperature;BME280_humidity;BME280_pressure;Samples;Min_cycle;Max_cycle;Signal;HPM_P1;HPM_P2
2020/12/09 00:00:30;;;;;;;70.28;37.30;;;;;;;-1.14;100.00;98657.28;2071110;28;20602;-76
2020/12/09 00:01:32;;;;;;;74.70;37.53;;;;;;;-1.23;100.00;98653.44;2071299;28;20220;-76
2020/12/09 00:02:33;;;;;;;70.47;36.53;;;;;;;-1.28;100.00;98645.50;2080767;28;20223;-76
2020/12/09 00:03:34;;;;;;;68.63;37.20;;;;;;;-1.23;100.00;98652.63;2080999;28;20307;-77
2020/12/09 00:04:35;;;;;;;72.50;36.40;;;;;;;-1.25;100.00;98657.31;2072871;28;20227;-76
2020/12/09 00:05:37;;;;;;;71.22;37.08;;;;;;;-1.29;100.00;98643.09;2072813;28;20216;-77
2020/12/09 00:06:38;;;;;;;73.80;38.63;;;;;;;-1.23;100.00;98648.19;2080499;28;20300;-77
2020/12/09 00:07:39;;;;;;;71.22;36.35;;;;;;;-1.20;100.00;98650.38;2080397;28;20289;-76
2020/12/09 00:08:40;;;;;;;70.40;38.08;;;;;;;-1.18;100.00;98650.16;2080549;28;20234;-76
2020/12/09 00:09:41;;;;;;;72.37;36.47;;;;;;;-1.22;100.00;98652.41;2080891;28;20230;-77
2020/12/09 00:10:42;;;;;;;70.65;35.70;;;;;;;-1.34;100.00;98646.41;2080047;28;20255;-77
2020/12/09 00:11:43;;;;;;;69.23;37.07;;;;;;;-1.32;100.00;98656.63;2072745;28;20231;-77
2020/12/09 00:12:44;;;;;;;68.57;35.40;;;;;;;-1.46;100.00;98643.00;2072266;28;20220;-76
2020/12/09 00:13:46;;;;;;;69.20;37.45;;;;;;;-1.38;100.00;98666.22;2080708;28;20215;-77
2020/12/09 00:14:46;;;;;;;68.85;37.83;;;;;;;-1.42;100.00;98652.78;2072645;28;20232;-76
2020/12/09 00:15:48;;;;;;;69.40;36.67;;;;;;;-1.30;100.00;98659.84;2072372;28;20274;-76
2020/12/09 00:16:48;;;;;;;63.92;36.03;;;;;;;-1.35;100.00;98657.88;2072547;28;20224;-76
2020/12/09 00:17:49;;;;;;;63.07;35.27;;;;;;;-1.41;100.00;98661.41;2080854;28;20227;-76
2020/12/09 00:18:50;;;;;;;73.53;36.88;;;;;;;-1.43;100.00;98668.69;2080905;28;20235;-77
2020/12/09 00:19:52;;;;;;;77.03;37.25;;;;;;;-1.47;100.00;98664.97;2072612;28;20223;-76
2020/12/09 00:20:52;;;;;;;74.10;37.03;;;;;;;-1.49;100.00;98651.28;2080317;28;20238;-78
2020/12/09 00:21:53;;;;;;;64.93;35.60;;;;;;;-1.49;100.00;98666.97;2080676;28;20292;-78
2020/12/09 00:22:54;;;;;;;70.63;36.28;;;;;;;-1.55;100.00;98660.84;2072388;28;20236;-77
2020/12/09 00:23:55;;;;;;;69.43;36.00;;;;;;;-1.68;100.00;98647.19;2072483;28;20228;-77
2020/12/09 00:24:56;;;;;;;69.28;35.75;;;;;;;-1.57;100.00;98662.09;2072548;28;20578;-77
2020/12/09 00:25:57;;;;;;;76.10;36.70;;;;;;;-1.71;100.00;98651.84;2072547;28;20254;-77
2020/12/09 00:26:58;;;;;;;67.85;36.05;;;;;;;-1.57;100.00;98664.69;2081007;28;20302;-77
2020/12/09 00:28:00;;;;;;;72.73;35.60;;;;;;;-1.60;100.00;98670.41;2080358;28;20223;-76
2020/12/09 00:29:01;;;;;;;67.40;36.13;;;;;;;-1.64;100.00;98670.06;2072705;28;20223;-76
2020/12/09 00:30:02;;;;;;;63.23;35.53;;;;;;;-1.63;100.00;98668.25;2080216;28;20669;-77
2020/12/09 00:31:03;;;;;;;69.57;36.10;;;;;;;-1.71;100.00;98666.75;2080756;28;20223;-77
2020/12/09 00:32:04;;;;;;;71.07;35.27;;;;;;;-1.79;100.00;98644.34;2079746;28;20273;-77
2020/12/09 00:33:05;;;;;;;68.63;35.63;;;;;;;-1.69;100.00;98661.28;2072231;28;20227;-76
2020/12/09 00:34:07;;;;;;;75.37;36.47;;;;;;;-1.66;100.00;98664.25;2072593;28;20307;-76
2020/12/09 00:35:08;;;;;;;64.57;36.28;;;;;;;-1.75;100.00;98658.56;2071624;28;20224;-77
2020/12/09 00:36:09;;;;;;;71.28;35.35;;;;;;;-1.77;100.00;98657.97;2071663;28;20266;-76
2020/12/09 00:37:10;;;;;;;68.38;35.55;;;;;;;-1.81;100.00;98659.47;2080905;28;20348;-77
2020/12/09 00:38:11;;;;;;;62.97;34.10;;;;;;;-1.82;100.00;98659.69;2080070;28;20289;-77
2020/12/09 00:39:11;;;;;;;65.13;35.90;;;;;;;-1.77;100.00;98663.22;2080729;28;20235;-76
2020/12/09 00:40:12;;;;;;;66.20;34.73;;;;;;;-1.86;100.00;98659.34;2080616;28;20673;-76
2020/12/09 00:41:13;;;;;;;63.40;36.50;;;;;;;-1.88;100.00;98660.59;2080718;28;20760;-76
2020/12/09 00:42:14;;;;;;;69.73;35.50;;;;;;;-1.89;100.00;98665.03;2072598;28;20661;-76
2020/12/09 00:43:16;;;;;;;68.78;35.90;;;;;;;-1.90;100.00;98663.44;2080780;28;20219;-77
2020/12/09 00:44:17;;;;;;;63.10;34.20;;;;;;;-1.95;100.00;98668.53;2080502;28;20262;-76
2020/12/09 00:45:18;;;;;;;74.55;36.33;;;;;;;-1.92;100.00;98675.13;2080721;28;20277;-77
2020/12/09 00:46:20;;;;;;;69.60;34.57;;;;;;;-1.94;100.00;98672.72;2080330;28;20227;-77
2020/12/09 00:47:24;;;;;;;67.80;37.35;;;;;;;-2.10;100.00;98657.69;2072554;28;20869;-77
2020/12/09 00:48:25;;;;;;;79.90;38.03;;;;;;;-2.16;100.00;98656.00;2080594;28;20737;-77
2020/12/09 00:49:25;;;;;;;69.15;37.03;;;;;;;-2.08;100.00;98666.13;2080462;28;20701;-76
2020/12/09 00:50:30;;;;;;;71.23;36.07;;;;;;;-2.25;100.00;98658.13;2072392;28;20625;-77
2020/12/09 00:51:39;;;;;;;69.13;35.05;;;;;;;-2.09;100.00;98685.41;2080205;28;20219;-77
2020/12/09 00:52:42;;;;;;;67.22;36.35;;;;;;;-2.11;100.00;98683.03;2080614;28;20228;-76
2020/12/09 00:53:43;;;;;;;67.82;36.08;;;;;;;-2.08;100.00;98687.03;2081362;28;20621;-76
2020/12/09 00:54:45;;;;;;;69.25;36.20;;;;;;;-2.05;100.00;98686.59;2080512;28;20219;-77
2020/12/09 00:55:45;;;;;;;65.07;37.65;;;;;;;-2.12;100.00;98665.75;2072410;28;20274;-76
2020/12/09 00:56:47;;;;;;;72.00;37.60;;;;;;;-2.06;100.00;98672.72;2072398;28;20228;-77
2020/12/09 00:57:50;;;;;;;74.05;39.20;;;;;;;-2.03;100.00;98669.66;2080474;28;20223;-76
2020/12/09 00:58:52;;;;;;;74.37;39.07;;;;;;;-2.18;100.00;98655.41;2080540;28;20223;-76
2020/12/09 00:59:54;;;;;;;64.57;36.95;;;;;;;-2.11;100.00;98672.56;2079854;28;20247;-76
2020/12/09 01:00:58;;;;;;;77.72;38.65;;;;;;;-2.23;100.00;98657.91;2080250;28;20235;-76
2020/12/09 01:01:59;;;;;;;76.00;39.13;;;;;;;-2.24;100.00;98666.75;2080301;28;20704;-76
2020/12/09 01:03:01;;;;;;;76.03;38.93;;;;;;;-2.41;100.00;98641.25;2080425;28;20219;-76
2020/12/09 01:04:02;;;;;;;80.15;39.97;;;;;;;-2.29;100.00;98660.38;2080382;28;20641;-76
2020/12/09 01:05:04;;;;;;;73.07;39.80;;;;;;;-2.21;100.00;98666.31;2072097;28;20224;-76
2020/12/09 01:06:05;;;;;;;78.15;39.30;;;;;;;-2.29;100.00;98664.81;2072527;28;20223;-76
2020/12/09 01:07:06;;;;;;;66.32;38.35;;;;;;;-2.28;100.00;98672.41;2080486;28;20650;-76
2020/12/09 01:08:07;;;;;;;79.80;38.80;;;;;;;-2.30;100.00;98669.22;2071399;28;20240;-77
2020/12/09 01:09:08;;;;;;;77.53;38.70;;;;;;;-2.30;100.00;98669.22;2072275;28;20216;-77
2020/12/09 01:10:09;;;;;;;73.47;40.10;;;;;;;-2.46;100.00;98645.53;2072013;28;20225;-77
2020/12/09 01:11:10;;;;;;;77.07;40.60;;;;;;;-2.58;100.00;98624.63;2072390;28;20224;-76
2020/12/09 01:12:11;;;;;;;68.90;39.22;;;;;;;-2.36;100.00;98670.09;2072123;28;20231;-76
2020/12/09 01:13:14;;;;;;;73.97;37.85;;;;;;;-2.40;100.00;98663.75;2071892;28;20259;-77
2020/12/09 01:14:15;;;;;;;68.80;37.63;;;;;;;-2.38;100.00;98666.94;2080169;28;20223;-77
2020/12/09 01:15:18;;;;;;;75.35;38.15;;;;;;;-2.61;100.00;98635.50;2071947;28;20330;-76
2020/12/09 01:16:19;;;;;;;75.43;39.75;;;;;;;-2.40;100.00;98671.59;2072466;28;20670;-76
2020/12/09 01:17:20;;;;;;;73.30;36.87;;;;;;;-2.52;100.00;98649.03;2072059;28;20592;-77
2020/12/09 01:18:20;;;;;;;79.97;39.45;;;;;;;-2.44;100.00;98673.03;2080351;28;20601;-76
2020/12/09 01:19:23;;;;;;;69.80;37.03;;;;;;;-2.43;100.00;98666.00;2079809;28;20220;-77
2020/12/09 01:20:23;;;;;;;73.60;37.55;;;;;;;-2.43;100.00;98674.66;2080005;28;20270;-76
2020/12/09 01:21:28;;;;;;;73.47;38.57;;;;;;;-2.41;100.00;98677.81;2080925;28;20223;-77
2020/12/09 01:22:29;;;;;;;81.00;39.38;;;;;;;-2.64;100.00;98651.59;2081095;28;20242;-76
2020/12/09 01:23:30;;;;;;;81.13;39.10;;;;;;;-2.53;100.00;98661.28;2080223;28;20215;-76
2020/12/09 01:24:31;;;;;;;75.75;38.50;;;;;;;-2.47;100.00;98673.47;2072008;28;20223;-77
2020/12/09 01:25:32;;;;;;;75.47;39.27;;;;;;;-2.50;100.00;98673.94;2080518;28;20238;-76
2020/12/09 01:26:33;;;;;;;72.18;38.20;;;;;;;-2.54;100.00;98670.16;2081000;28;20310;-76
2020/12/09 01:27:34;;;;;;;72.77;36.53;;;;;;;-2.46;100.00;98680.28;2080804;28;20219;-77
2020/12/09 01:28:35;;;;;;;73.93;38.70;;;;;;;-2.58;100.00;98656.75;2080972;28;20223;-76
2020/12/09 01:29:37;;;;;;;74.53;36.93;;;;;;;-2.41;100.00;98670.00;2081037;28;20225;-77
2020/12/09 01:30:38;;;;;;;70.47;37.10;;;;;;;-2.37;100.00;98673.75;2079887;28;20298;-77
2020/12/09 01:31:39;;;;;;;69.97;35.20;;;;;;;-2.34;100.00;98678.53;2080384;28;20227;-77
2020/12/09 01:32:41;;;;;;;70.30;37.13;;;;;;;-2.73;100.00;98611.94;2080125;28;20230;-77
2020/12/09 01:33:43;;;;;;;75.03;37.53;;;;;;;-2.36;100.00;98669.31;2071417;28;20228;-77
2020/12/09 01:34:43;;;;;;;69.72;37.38;;;;;;;-2.31;100.00;98678.09;2072024;28;20220;-77
2020/12/09 01:35:44;;;;;;;71.33;34.37;;;;;;;-2.32;100.00;98670.47;2071422;28;20274;-77
2020/12/09 01:36:45;;;;;;;67.55;35.58;;;;;;;-2.33;100.00;98674.13;2072041;28;20265;-77
2020/12/09 01:37:46;;;;;;;68.97;38.03;;;;;;;-2.28;100.00;98672.41;2080422;28;20250;-77
2020/12/09 01:38:47;;;;;;;70.07;37.47;;;;;;;-2.40;100.00;98652.50;2080222;28;20640;-76
2020/12/09 01:39:48;;;;;;;67.07;35.93;;;;;;;-2.27;100.00;98668.78;2071860;28;20331;-77
2020/12/09 01:40:49;;;;;;;66.85;36.65;;;;;;;-2.27;100.00;98670.59;2071932;28;20748;-76
2020/12/09 01:41:50;;;;;;;70.77;37.07;;;;;;;-2.27;100.00;98660.94;2071791;28;20596;-77
2020/12/09 01:42:51;;;;;;;73.60;37.08;;;;;;;-2.27;100.00;98662.75;2071873;28;20228;-76
2020/12/09 01:43:53;;;;;;;71.15;39.22;;;;;;;-2.28;100.00;98661.16;2079388;28;20705;-77
2020/12/09 01:44:55;;;;;;;67.72;37.75;;;;;;;-2.36;100.00;98649.22;2079950;28;20285;-77
2020/12/09 01:45:56;;;;;;;67.28;38.78;;;;;;;-2.31;100.00;98656.41;2080128;28;20238;-76
2020/12/09 01:46:57;;;;;;;68.00;38.40;;;;;;;-2.24;100.00;98654.50;2079264;28;20313;-77
2020/12/09 01:47:58;;;;;;;70.57;35.90;;;;;;;-2.25;100.00;98647.69;2079959;28;20235;-76
2020/12/09 01:49:00;;;;;;;66.60;35.70;;;;;;;-2.17;100.00;98656.97;2080205;28;20227;-77
2020/12/09 01:50:02;;;;;;;68.45;37.72;;;;;;;-2.15;100.00;98660.19;2080042;28;20274;-76
2020/12/09 01:51:02;;;;;;;67.35;39.25;;;;;;;-2.17;100.00;98667.44;2080104;28;20223;-76
2020/12/09 01:52:05;;;;;;;67.63;37.57;;;;;;;-2.18;100.00;98665.84;2079899;28;20269;-76
2020/12/09 01:53:06;;;;;;;67.32;36.13;;;;;;;-2.27;100.00;98653.09;2072113;28;20224;-76
2020/12/09 01:54:07;;;;;;;71.73;36.87;;;;;;;-2.28;100.00;98656.72;2071295;28;20303;-76
2020/12/09 01:55:08;;;;;;;65.25;37.38;;;;;;;-2.18;100.00;98665.84;2079808;28;20216;-77
2020/12/09 01:56:09;;;;;;;65.47;35.25;;;;;;;-2.18;100.00;98658.81;2080877;28;20711;-77
2020/12/09 01:57:11;;;;;;;68.78;34.78;;;;;;;-2.18;100.00;98664.03;2079864;28;20308;-76
2020/12/09 01:58:13;;;;;;;63.53;33.80;;;;;;;-2.14;100.00;98661.78;2071569;28;20627;-76
2020/12/09 01:59:13;;;;;;;65.45;35.97;;;;;;;-2.09;100.00;98665.31;2079869;28;20302;-76
2020/12/09 02:00:15;;;;;;;62.73;34.63;;;;;;;-2.07;100.00;98662.50;2071212;28;20231;-76
2020/12/09 02:01:17;;;;;;;59.78;34.47;;;;;;;-2.09;100.00;98669.75;2080012;28;20310;-76
2020/12/09 02:02:18;;;;;;;57.27;35.27;;;;;;;-2.09;100.00;98667.13;2080918;28;20236;-76
2020/12/09 02:03:18;;;;;;;63.72;35.80;;;;;;;-2.20;100.00;98654.84;2080886;28;20526;-76
2020/12/09 02:04:20;;;;;;;61.33;35.93;;;;;;;-2.08;100.00;98669.53;2080661;28;20215;-76
2020/12/09 02:05:20;;;;;;;63.83;36.33;;;;;;;-2.21;100.00;98655.84;2079747;28;20223;-76
2020/12/09 02:06:22;;;;;;;63.97;35.77;;;;;;;-2.10;100.00;98668.16;2071621;28;20258;-76
2020/12/09 02:07:22;;;;;;;69.80;37.45;;;;;;;-2.13;100.00;98677.25;2071284;28;20228;-76
2020/12/09 02:08:24;;;;;;;61.53;36.10;;;;;;;-2.15;100.00;98671.44;2079781;28;20286;-76
2020/12/09 02:09:25;;;;;;;59.75;35.78;;;;;;;-2.19;100.00;98648.59;2080702;28;20238;-76
2020/12/09 02:10:26;;;;;;;68.72;35.22;;;;;;;-2.09;100.00;98670.53;2079897;28;20238;-77
2020/12/09 02:11:27;;;;;;;64.57;34.42;;;;;;;-2.08;100.00;98672.16;2079978;28;20676;-76
2020/12/09 02:12:29;;;;;;;62.00;35.30;;;;;;;-2.10;100.00;98665.53;2080495;28;20216;-76
2020/12/09 02:13:31;;;;;;;59.78;34.30;;;;;;;-2.09;100.00;98667.91;2079899;28;20215;-76
2020/12/09 02:14:34;;;;;;;61.22;34.20;;;;;;;-2.30;100.00;98637.88;2071592;28;20224;-76
2020/12/09 02:15:35;;;;;;;62.63;35.80;;;;;;;-2.09;100.00;98670.53;2079967;28;20224;-77
2020/12/09 02:16:36;;;;;;;60.03;34.78;;;;;;;-2.08;100.00;98666.91;2079573;28;20223;-76
2020/12/09 02:17:37;;;;;;;61.95;35.45;;;;;;;-2.16;100.00;98664.63;2071417;28;20281;-78
2020/12/09 02:18:38;;;;;;;59.53;35.70;;;;;;;-2.28;100.00;98650.72;2071599;28;20274;-77
2020/12/09 02:19:39;;;;;;;58.35;35.63;;;;;;;-2.11;100.00;98666.56;2079774;28;20608;-77
2020/12/09 02:20:41;;;;;;;64.27;35.50;;;;;;;-2.15;100.00;98674.06;2079662;28;20289;-77
2020/12/09 02:21:42;;;;;;;58.65;32.67;;;;;;;-2.07;100.00;98672.94;2079625;28;20231;-77
2020/12/09 02:22:51;;;;;;;63.53;33.80;;;;;;;-2.14;100.00;98651.34;2079985;28;20254;-77
2020/12/09 02:23:52;;;;;;;60.63;33.40;;;;;;;-2.12;100.00;98670.19;2079064;28;20233;-77
2020/12/09 02:24:53;;;;;;;63.63;35.77;;;;;;;-2.02;100.00;98662.59;2071521;28;20716;-77
2020/12/09 02:25:54;;;;;;;58.08;32.92;;;;;;;-2.14;100.00;98648.72;2071549;28;20228;-77
2020/12/09 02:26:55;;;;;;;62.97;33.73;;;;;;;-2.06;100.00;98658.84;2071632;28;20258;-78
2020/12/09 02:27:56;;;;;;;63.67;34.65;;;;;;;-2.07;100.00;98662.50;2079738;28;20344;-77
2020/12/09 02:28:57;;;;;;;64.23;35.90;;;;;;;-2.08;100.00;98666.91;2079657;28;20235;-77
2020/12/09 02:29:58;;;;;;;55.17;34.10;;;;;;;-2.23;100.00;98631.78;2071520;28;20234;-77
2020/12/09 02:30:59;;;;;;;66.85;34.58;;;;;;;-2.08;100.00;98664.31;2071578;28;20228;-76
2020/12/09 02:32:01;;;;;;;62.20;35.87;;;;;;;-2.09;100.00;98661.91;2079767;28;20231;-76
2020/12/09 02:33:02;;;;;;;57.10;33.05;;;;;;;-2.20;100.00;98647.00;2079026;28;20238;-77
2020/12/09 02:34:03;;;;;;;67.43;35.80;;;;;;;-2.10;100.00;98671.56;2079893;28;20234;-76
2020/12/09 02:35:06;;;;;;;65.90;34.85;;;;;;;-2.13;100.00;98668.59;2079441;28;20603;-77
2020/12/09 02:36:07;;;;;;;55.38;34.25;;;;;;;-2.22;100.00;98649.03;2071206;28;20636;-80
2020/12/09 02:37:08;;;;;;;60.55;33.80;;;;;;;-2.13;100.00;98679.06;2071461;28;20227;-77
2020/12/09 02:38:11;;;;;;;61.63;33.85;;;;;;;-2.09;100.00;98680.19;2071641;28;20239;-76
2020/12/09 02:39:11;;;;;;;59.78;33.33;;;;;;;-2.11;100.00;98661.34;2079770;28;20235;-78
2020/12/09 02:40:13;;;;;;;65.47;33.17;;;;;;;-2.28;100.00;98646.28;2080488;28;20679;-77
2020/12/09 02:41:13;;;;;;;66.40;34.33;;;;;;;-2.15;100.00;98673.25;2079605;28;20223;-76
2020/12/09 02:42:15;;;;;;;60.27;33.73;;;;;;;-2.15;100.00;98671.44;2079542;28;20255;-76
2020/12/09 02:43:15;;;;;;;60.08;33.83;;;;;;;-2.18;100.00;98658.81;2079504;28;20228;-76
2020/12/09 02:44:17;;;;;;;60.93;33.47;;;;;;;-2.13;100.00;98674.63;2079501;28;20281;-76
2020/12/09 02:45:17;;;;;;;62.15;33.25;;;;;;;-2.23;100.00;98652.69;2079609;28;20230;-76
2020/12/09 02:46:19;;;;;;;59.43;32.17;;;;;;;-2.12;100.00;98664.97;2079510;28;20223;-77
2020/12/09 02:47:19;;;;;;;60.58;32.67;;;;;;;-2.13;100.00;98663.38;2079544;28;20222;-77
2020/12/09 02:48:21;;;;;;;63.07;34.80;;;;;;;-2.19;100.00;98667.66;2079631;28;20250;-77
2020/12/09 02:49:22;;;;;;;54.83;31.65;;;;;;;-2.18;100.00;98676.31;2079038;28;20526;-80
2020/12/09 02:50:23;;;;;;;60.70;33.88;;;;;;;-2.18;100.00;98666.66;2079236;28;20287;-77
2020/12/09 02:51:24;;;;;;;67.50;35.65;;;;;;;-2.16;100.00;98674.28;2079423;28;20258;-77
2020/12/09 02:52:27;;;;;;;56.67;32.03;;;;;;;-2.24;100.00;98661.53;2071121;28;20310;-77
2020/12/09 02:53:27;;;;;;;59.75;32.53;;;;;;;-2.25;100.00;98673.81;2079668;28;20215;-78
2020/12/09 02:54:29;;;;;;;65.30;34.77;;;;;;;-2.28;100.00;98667.19;2079435;28;20305;-77
2020/12/09 02:55:29;;;;;;;56.17;34.25;;;;;;;-2.27;100.00;98675.81;2079733;28;20298;-76
2020/12/09 02:56:30;;;;;;;60.30;34.07;;;;;;;-2.34;100.00;98675.94;2079476;28;20230;-77
2020/12/09 02:57:31;;;;;;;62.10;34.22;;;;;;;-2.36;100.00;98671.94;2071393;28;20219;-77
2020/12/09 02:58:32;;;;;;;57.10;32.87;;;;;;;-2.76;100.00;98606.38;2071410;28;20223;-77
2020/12/09 02:59:33;;;;;;;60.20;34.25;;;;;;;-2.35;100.00;98668.28;2079674;28;20219;-76
2020/12/09 03:00:34;;;;;;;66.03;34.93;;;;;;;-2.37;100.00;98673.75;2079392;28;20223;-76
2020/12/09 03:01:35;;;;;;;65.03;34.35;;;;;;;-2.44;100.00;98665.19;2079433;28;20735;-76
2020/12/09 03:02:36;;;;;;;62.30;33.63;;;;;;;-2.47;100.00;98657.00;2079489;28;20344;-77
2020/12/09 03:03:37;;;;;;;56.92;32.38;;;;;;;-2.33;100.00;98663.66;2079237;28;20273;-77
2020/12/09 03:04:38;;;;;;;61.63;33.13;;;;;;;-2.31;100.00;98667.63;2079417;28;20230;-77
2020/12/09 03:05:39;;;;;;;59.60;32.95;;;;;;;-2.36;100.00;98669.31;2079363;28;20743;-76
2020/12/09 03:06:41;;;;;;;54.63;30.87;;;;;;;-2.39;100.00;98654.88;2079299;28;20636;-76
2020/12/09 03:07:43;;;;;;;63.00;32.75;;;;;;;-2.35;100.00;98656.03;2071331;28;20236;-76
2020/12/09 03:08:44;;;;;;;63.40;33.00;;;;;;;-2.35;100.00;98655.22;2071178;28;20254;-76
2020/12/09 03:09:45;;;;;;;62.90;33.22;;;;;;;-2.39;100.00;98659.31;2071472;28;20220;-77
2020/12/09 03:10:46;;;;;;;68.53;34.53;;;;;;;-2.36;100.00;98661.47;2071415;28;20255;-76
2020/12/09 03:11:47;;;;;;;56.05;31.75;;;;;;;-2.44;100.00;98649.53;2079163;28;20230;-77
2020/12/09 03:12:48;;;;;;;56.77;33.90;;;;;;;-2.39;100.00;98654.09;2079168;28;20242;-76
2020/12/09 03:13:49;;;;;;;60.35;33.63;;;;;;;-2.52;100.00;98649.81;2071271;28;20686;-76
2020/12/09 03:14:51;;;;;;;57.88;33.15;;;;;;;-2.45;100.00;98661.00;2079580;28;20310;-76
2020/12/09 03:15:51;;;;;;;74.55;34.78;;;;;;;-2.51;100.00;98651.44;2078880;28;20623;-79
2020/12/09 03:16:53;;;;;;;55.40;33.07;;;;;;;-2.50;100.00;98660.88;2070979;28;20232;-77
2020/12/09 03:17:53;;;;;;;60.92;32.85;;;;;;;-2.51;100.00;98661.09;2071214;28;20235;-76
2020/12/09 03:18:55;;;;;;;59.07;32.80;;;;;;;-2.48;100.00;98669.28;2071551;28;20232;-76
2020/12/09 03:19:55;;;;;;;69.00;33.78;;;;;;;-2.46;100.00;98661.22;2079103;28;20277;-77
2020/12/09 03:20:57;;;;;;;64.60;34.47;;;;;;;-2.53;100.00;98666.53;2078817;28;20234;-77
2020/12/09 03:21:57;;;;;;;61.65;31.70;;;;;;;-2.50;100.00;98668.72;2071314;28;20706;-76
2020/12/09 03:23:00;;;;;;;67.03;34.60;;;;;;;-2.49;100.00;98669.50;2079353;28;20550;-76
2020/12/09 03:24:01;;;;;;;61.50;34.08;;;;;;;-2.52;100.00;98668.09;2080009;28;20679;-76
2020/12/09 03:25:02;;;;;;;63.22;33.55;;;;;;;-2.52;100.00;98660.28;2079512;28;20277;-76
2020/12/09 03:26:04;;;;;;;62.53;34.17;;;;;;;-2.59;100.00;98647.31;2071245;28;20654;-76
2020/12/09 03:27:04;;;;;;;63.30;35.08;;;;;;;-2.45;100.00;98661.00;2071367;28;20263;-76
2020/12/09 03:28:06;;;;;;;60.43;32.50;;;;;;;-2.44;100.00;98652.13;2079459;28;20223;-76
2020/12/09 03:29:07;;;;;;;63.15;34.63;;;;;;;-2.42;100.00;98660.56;2079481;28;20310;-79
2020/12/09 03:30:08;;;;;;;66.00;34.57;;;;;;;-2.49;100.00;98651.22;2079281;28;20223;-78
2020/12/09 03:31:09;;;;;;;65.15;33.60;;;;;;;-2.45;100.00;98658.38;2079263;28;20572;-77
2020/12/09 03:32:10;;;;;;;65.30;33.67;;;;;;;-2.47;100.00;98649.97;2071216;28;20258;-76
2020/12/09 03:33:11;;;;;;;63.35;34.03;;;;;;;-2.44;100.00;98656.56;2079542;28;20220;-77
2020/12/09 03:34:12;;;;;;;62.80;32.87;;;;;;;-2.40;100.00;98655.91;2080196;28;20782;-77
2020/12/09 03:35:13;;;;;;;66.75;35.13;;;;;;;-2.39;100.00;98665.34;2079388;28;20580;-77
2020/12/09 03:36:14;;;;;;;60.73;34.43;;;;;;;-2.44;100.00;98659.19;2079442;28;20241;-76
2020/12/09 03:37:15;;;;;;;69.28;36.13;;;;;;;-2.41;100.00;98662.16;2081269;28;20575;-76
2020/12/09 03:38:17;;;;;;;68.93;35.87;;;;;;;-2.39;100.00;98665.34;2080806;28;20579;-77
2020/12/09 03:39:18;;;;;;;61.58;34.63;;;;;;;-2.38;100.00;98666.94;2072913;28;20279;-77
2020/12/09 03:40:19;;;;;;;67.73;34.30;;;;;;;-2.31;100.00;98667.63;2072864;28;20223;-76
2020/12/09 03:41:20;;;;;;;59.10;33.72;;;;;;;-2.29;100.00;98670.03;2072753;28;20231;-76
2020/12/09 03:42:21;;;;;;;59.97;33.10;;;;;;;-2.35;100.00;98655.22;2081105;28;20305;-77
2020/12/09 03:43:22;;;;;;;60.63;34.75;;;;;;;-2.24;100.00;98677.22;2072374;28;20224;-78
2020/12/09 03:44:23;;;;;;;62.97;33.23;;;;;;;-2.33;100.00;98667.06;2072361;28;20227;-77
2020/12/09 03:45:24;;;;;;;63.70;35.08;;;;;;;-2.21;100.00;98689.81;2081031;28;20611;-77
2020/12/09 03:46:25;;;;;;;68.23;34.97;;;;;;;-2.29;100.00;98683.09;2080658;28;20306;-77
2020/12/09 03:47:26;;;;;;;53.20;30.90;;;;;;;-2.07;100.00;98691.25;2081263;28;20235;-77
2020/12/09 03:48:27;;;;;;;63.10;31.93;;;;;;;-2.11;100.00;98687.47;2081858;28;20246;-77
2020/12/09 03:49:28;;;;;;;61.80;32.55;;;;;;;-2.18;100.00;98682.31;2081904;28;20219;-76
2020/12/09 03:50:29;;;;;;;57.07;32.23;;;;;;;-2.18;100.00;98686.75;2080758;28;20239;-76
2020/12/09 03:51:30;;;;;;;61.58;34.92;;;;;;;-2.29;100.00;98664.81;2072670;28;20224;-76
2020/12/09 03:52:31;;;;;;;61.57;33.77;;;;;;;-2.13;100.00;98673.81;2080741;28;20215;-76
2020/12/09 03:53:34;;;;;;;59.30;35.42;;;;;;;-2.21;100.00;98671.53;2080345;28;20223;-76
2020/12/09 03:54:35;;;;;;;61.60;35.72;;;;;;;-2.21;100.00;98666.31;2080974;28;20744;-76
2020/12/09 03:55:36;;;;;;;63.88;35.47;;;;;;;-2.23;100.00;98670.97;2072538;28;20227;-76
2020/12/09 03:56:37;;;;;;;67.28;36.00;;;;;;;-2.28;100.00;98661.97;2080746;28;20231;-77
2020/12/09 03:57:38;;;;;;;60.47;36.53;;;;;;;-2.28;100.00;98675.03;2080725;28;20763;-77
2020/12/09 03:58:39;;;;;;;59.08;34.80;;;;;;;-2.27;100.00;98671.38;2080876;28;20246;-76
2020/12/09 03:59:40;;;;;;;63.37;34.33;;;;;;;-2.24;100.00;98674.59;2080769;28;20227;-76
2020/12/09 04:00:41;;;;;;;63.33;35.20;;;;;;;-2.18;100.00;98671.06;2080795;28;20315;-76
2020/12/09 04:01:42;;;;;;;60.50;34.60;;;;;;;-2.22;100.00;98659.50;2081553;28;20238;-76
2020/12/09 04:02:44;;;;;;;62.10;32.90;;;;;;;-2.10;100.00;98660.31;2080737;28;20314;-76
2020/12/09 04:03:45;;;;;;;63.88;34.13;;;;;;;-2.07;100.00;98667.72;2072794;28;20559;-76
2020/12/09 04:04:46;;;;;;;61.40;35.67;;;;;;;-2.07;100.00;98667.72;2080896;28;20226;-76
2020/12/09 04:05:49;;;;;;;65.30;35.57;;;;;;;-2.08;100.00;98666.91;2080732;28;20753;-76
2020/12/09 04:06:50;;;;;;;63.33;33.40;;;;;;;-2.07;100.00;98660.69;2081039;28;20235;-77
2020/12/09 04:07:51;;;;;;;58.03;35.17;;;;;;;-1.96;100.00;98672.16;2080460;28;20243;-79
2020/12/09 04:08:53;;;;;;;63.85;35.33;;;;;;;-2.00;100.00;98666.59;2071537;28;20235;-78
2020/12/09 04:09:54;;;;;;;55.17;34.03;;;;;;;-1.95;100.00;98673.75;2072399;28;20239;-77
2020/12/09 04:10:55;;;;;;;63.55;35.80;;;;;;;-1.96;100.00;98674.00;2080762;28;20656;-77
2020/12/09 04:11:56;;;;;;;62.40;34.67;;;;;;;-1.90;100.00;98681.75;2080911;28;20265;-77
2020/12/09 04:12:57;;;;;;;58.65;34.15;;;;;;;-1.94;100.00;98666.72;2081489;28;20592;-78
2020/12/09 04:13:58;;;;;;;65.03;34.77;;;;;;;-1.92;100.00;98675.91;2080774;28;20243;-77
2020/12/09 04:14:59;;;;;;;61.70;35.47;;;;;;;-1.96;100.00;98680.00;2072357;28;20682;-77
2020/12/09 04:16:00;;;;;;;61.53;33.47;;;;;;;-1.98;100.00;98684.66;2080986;28;20663;-77
2020/12/09 04:17:01;;;;;;;59.33;32.72;;;;;;;-2.01;100.00;98672.81;2081375;28;20667;-77
2020/12/09 04:18:02;;;;;;;58.67;33.33;;;;;;;-1.95;100.00;98684.22;2080632;28;20227;-77
2020/12/09 04:19:03;;;;;;;62.13;33.03;;;;;;;-2.02;100.00;98670.44;2080811;28;20266;-77
2020/12/09 04:20:05;;;;;;;56.07;32.73;;;;;;;-2.04;100.00;98681.13;2080831;28;20242;-77
2020/12/09 04:21:06;;;;;;;58.53;32.00;;;;;;;-2.00;100.00;98676.22;2080756;28;20257;-76
2020/12/09 04:22:07;;;;;;;66.53;32.67;;;;;;;-2.20;100.00;98650.41;2080794;28;20224;-77
2020/12/09 04:23:07;;;;;;;61.20;33.83;;;;;;;-1.98;100.00;98687.28;2080426;28;20227;-77
2020/12/09 04:24:10;;;;;;;55.77;33.67;;;;;;;-2.03;100.00;98681.91;2080567;28;20227;-78
2020/12/09 04:25:10;;;;;;;58.65;33.60;;;;;;;-2.00;100.00;98681.47;2080119;28;20224;-77
2020/12/09 04:26:12;;;;;;;57.43;31.87;;;;;;;-2.15;100.00;98647.13;2080726;28;20227;-77
2020/12/09 04:27:12;;;;;;;59.50;33.08;;;;;;;-1.99;100.00;98680.47;2080878;28;20304;-76
2020/12/09 04:28:14;;;;;;;56.83;32.33;;;;;;;-2.03;100.00;98668.84;2081647;28;20219;-77
2020/12/09 04:29:14;;;;;;;55.03;31.70;;;;;;;-1.91;100.00;98682.75;2080550;28;20701;-77
2020/12/09 04:30:16;;;;;;;63.60;32.73;;;;;;;-1.89;100.00;98680.72;2080682;28;20613;-77
2020/12/09 04:31:16;;;;;;;59.17;33.17;;;;;;;-1.90;100.00;98678.31;2080751;28;20693;-77
2020/12/09 04:32:18;;;;;;;59.60;33.47;;;;;;;-1.93;100.00;98674.31;2080814;28;20641;-77
2020/12/09 04:33:22;;;;;;;68.97;34.35;;;;;;;-1.92;100.00;98675.13;2081485;28;20673;-77
2020/12/09 04:34:23;;;;;;;59.47;33.17;;;;;;;-1.96;100.00;98682.63;2080198;28;20573;-77
2020/12/09 04:35:25;;;;;;;58.58;33.20;;;;;;;-1.96;100.00;98674.00;2072426;28;20232;-77
2020/12/09 04:36:26;;;;;;;61.05;31.42;;;;;;;-1.83;100.00;98685.03;2071781;28;20231;-77
2020/12/09 04:37:27;;;;;;;57.63;31.92;;;;;;;-1.86;100.00;98680.25;2072274;28;20239;-77
2020/12/09 04:38:28;;;;;;;56.40;32.15;;;;;;;-1.90;100.00;98670.50;2080340;28;20219;-78